sensor_id;sensor_type;location;lat;lon;timestamp;temperature;humidity
38936;DHT22;66589;47.458;9.644;2023-06-14T03:16:59;13.90;60.80
38936;DHT22;66589;47.458;9.644;2023-06-14T03:19:25;13.90;60.60
38936;DHT22;66589;47.458;9.644;2023-06-14T03:21:52;13.90;62.00
38936;DHT22;66589;47.458;9.644;2023-06-14T03:24:19;13.90;62.10
38936;DHT22;66589;47.458;9.644;2023-06-14T03:26:45;14.00;60.60
38936;DHT22;66589;47.458;9.644;2023-06-14T03:29:11;14.00;61.80
38936;DHT22;66589;47.458;9.644;2023-06-14T03:31:41;13.90;62.50
38936;DHT22;66589;47.458;9.644;2023-06-14T03:34:21;13.90;60.90
38936;DHT22;66589;47.458;9.644;2023-06-14T03:36:46;13.90;59.60
38936;DHT22;66589;47.458;9.644;2023-06-14T03:39:12;14.00;60.10
38936;DHT22;66589;47.458;9.644;2023-06-14T03:41:38;14.00;60.10
38936;DHT22;66589;47.458;9.644;2023-06-14T03:44:03;14.00;59.90
38936;DHT22;66589;47.458;9.644;2023-06-14T03:46:29;14.10;59.90
38936;DHT22;66589;47.458;9.644;2023-06-14T03:48:55;14.10;59.90
38936;DHT22;66589;47.458;9.644;2023-06-14T03:51:21;14.20;61.20
38936;DHT22;66589;47.458;9.644;2023-06-14T03:53:48;14.50;61.60
38936;DHT22;66589;47.458;9.644;2023-06-14T03:56:13;15.00;60.80
38936;DHT22;66589;47.458;9.644;2023-06-14T03:58:39;15.30;59.80
38936;DHT22;66589;47.458;9.644;2023-06-14T04:01:04;15.80;58.20
38936;DHT22;66589;47.458;9.644;2023-06-14T04:03:32;16.20;57.20
38936;DHT22;66589;47.458;9.644;2023-06-14T04:05:58;16.70;55.10
38936;DHT22;66589;47.458;9.644;2023-06-14T04:08:25;17.10;54.40
38936;DHT22;66589;47.458;9.644;2023-06-14T04:10:51;17.40;54.10
38936;DHT22;66589;47.458;9.644;2023-06-14T04:13:16;18.10;53.50
38936;DHT22;66589;47.458;9.644;2023-06-14T04:15:43;18.40;51.90
38936;DHT22;66589;47.458;9.644;2023-06-14T04:18:11;18.80;52.40
38936;DHT22;66589;47.458;9.644;2023-06-14T04:20:36;19.30;50.60
38936;DHT22;66589;47.458;9.644;2023-06-14T04:23:17;19.80;50.40
38936;DHT22;66589;47.458;9.644;2023-06-14T04:25:46;20.40;49.20
38936;DHT22;66589;47.458;9.644;2023-06-14T04:28:13;20.70;48.70
38936;DHT22;66589;47.458;9.644;2023-06-14T04:30:40;21.10;47.10
38936;DHT22;66589;47.458;9.644;2023-06-14T04:33:06;21.40;46.90
38936;DHT22;66589;47.458;9.644;2023-06-14T04:35:32;21.50;45.60
38936;DHT22;66589;47.458;9.644;2023-06-14T04:37:58;21.40;46.00
38936;DHT22;66589;47.458;9.644;2023-06-14T04:40:24;21.60;45.10
38936;DHT22;66589;47.458;9.644;2023-06-14T04:42:50;21.80;44.70
38936;DHT22;66589;47.458;9.644;2023-06-14T04:45:16;22.40;43.40
38936;DHT22;66589;47.458;9.644;2023-06-14T04:47:42;23.00;42.60
38936;DHT22;66589;47.458;9.644;2023-06-14T04:50:10;23.40;41.60
38936;DHT22;66589;47.458;9.644;2023-06-14T04:52:36;23.70;41.70
38936;DHT22;66589;47.458;9.644;2023-06-14T04:55:03;24.30;40.70
38936;DHT22;66589;47.458;9.644;2023-06-14T04:57:29;24.60;40.30
38936;DHT22;66589;47.458;9.644;2023-06-14T04:59:55;24.90;40.00
38936;DHT22;66589;47.458;9.644;2023-06-14T05:02:24;25.10;38.70
38936;DHT22;66589;47.458;9.644;2023-06-14T05:04:51;25.90;38.40
38936;DHT22;66589;47.458;9.644;2023-06-14T05:07:16;26.30;38.50
38936;DHT22;66589;47.458;9.644;2023-06-14T05:09:42;26.40;37.80
38936;DHT22;66589;47.458;9.644;2023-06-14T05:12:08;26.80;38.50
38936;DHT22;66589;47.458;9.644;2023-06-14T05:14:35;27.50;37.60
38936;DHT22;66589;47.458;9.644;2023-06-14T05:17:01;27.80;36.70
38936;DHT22;66589;47.458;9.644;2023-06-14T05:19:28;28.30;36.40
38936;DHT22;66589;47.458;9.644;2023-06-14T05:21:53;29.20;37.00
38936;DHT22;66589;47.458;9.644;2023-06-14T05:24:19;29.70;35.50
38936;DHT22;66589;47.458;9.644;2023-06-14T05:26:45;30.20;37.10
38936;DHT22;66589;47.458;9.644;2023-06-14T05:29:12;30.70;36.00
38936;DHT22;66589;47.458;9.644;2023-06-14T05:31:37;30.80;35.00
38936;DHT22;66589;47.458;9.644;2023-06-14T05:34:03;30.80;35.70
38936;DHT22;66589;47.458;9.644;2023-06-14T05:36:29;31.10;35.50
38936;DHT22;66589;47.458;9.644;2023-06-14T05:38:55;31.50;35.20
38936;DHT22;66589;47.458;9.644;2023-06-14T05:41:28;31.30;36.00
38936;DHT22;66589;47.458;9.644;2023-06-14T05:43:55;31.20;35.60
38936;DHT22;66589;47.458;9.644;2023-06-14T05:46:21;31.60;35.20
38936;DHT22;66589;47.458;9.644;2023-06-14T05:48:50;31.90;35.20
38936;DHT22;66589;47.458;9.644;2023-06-14T05:51:16;32.80;35.60
38936;DHT22;66589;47.458;9.644;2023-06-14T05:53:48;33.00;34.50
38936;DHT22;66589;47.458;9.644;2023-06-14T05:56:14;33.30;34.20
38936;DHT22;66589;47.458;9.644;2023-06-14T05:58:40;33.70;34.40
38936;DHT22;66589;47.458;9.644;2023-06-14T06:01:06;34.20;34.50
38936;DHT22;66589;47.458;9.644;2023-06-14T06:03:32;34.00;33.20
38936;DHT22;66589;47.458;9.644;2023-06-14T06:05:58;34.50;33.60
38936;DHT22;66589;47.458;9.644;2023-06-14T06:08:24;34.60;32.80
38936;DHT22;66589;47.458;9.644;2023-06-14T06:10:50;34.80;33.30
38936;DHT22;66589;47.458;9.644;2023-06-14T06:13:16;35.50;31.20
38936;DHT22;66589;47.458;9.644;2023-06-14T06:15:41;35.90;32.00
38936;DHT22;66589;47.458;9.644;2023-06-14T06:18:07;35.80;31.80
38936;DHT22;66589;47.458;9.644;2023-06-14T06:20:33;35.80;32.30
38936;DHT22;66589;47.458;9.644;2023-06-14T06:22:59;35.60;31.40
38936;DHT22;66589;47.458;9.644;2023-06-14T06:25:27;35.60;31.30
38936;DHT22;66589;47.458;9.644;2023-06-14T06:27:54;35.70;31.90
38936;DHT22;66589;47.458;9.644;2023-06-14T06:30:20;36.50;31.10
38936;DHT22;66589;47.458;9.644;2023-06-14T06:32:46;36.60;30.90
38936;DHT22;66589;47.458;9.644;2023-06-14T06:35:13;36.80;30.90
38936;DHT22;66589;47.458;9.644;2023-06-14T06:37:39;36.80;30.70
38936;DHT22;66589;47.458;9.644;2023-06-14T06:40:05;37.10;30.90
38936;DHT22;66589;47.458;9.644;2023-06-14T06:42:32;37.70;31.00
38936;DHT22;66589;47.458;9.644;2023-06-14T06:44:58;38.00;29.90
38936;DHT22;66589;47.458;9.644;2023-06-14T06:47:23;38.10;30.40
38936;DHT22;66589;47.458;9.644;2023-06-14T06:49:50;38.40;29.70
38936;DHT22;66589;47.458;9.644;2023-06-14T06:52:16;38.70;29.90
38936;DHT22;66589;47.458;9.644;2023-06-14T06:54:41;39.00;30.10
38936;DHT22;66589;47.458;9.644;2023-06-14T06:57:07;38.50;30.40
38936;DHT22;66589;47.458;9.644;2023-06-14T06:59:34;38.90;30.30
38936;DHT22;66589;47.458;9.644;2023-06-14T07:02:00;39.60;29.50
38936;DHT22;66589;47.458;9.644;2023-06-14T07:04:26;39.90;29.30
38936;DHT22;66589;47.458;9.644;2023-06-14T07:06:51;39.90;29.50
38936;DHT22;66589;47.458;9.644;2023-06-14T07:09:17;39.90;29.60
38936;DHT22;66589;47.458;9.644;2023-06-14T07:11:46;40.00;30.00
38936;DHT22;66589;47.458;9.644;2023-06-14T07:14:12;39.70;30.00
38936;DHT22;66589;47.458;9.644;2023-06-14T07:16:38;40.10;29.30
38936;DHT22;66589;47.458;9.644;2023-06-14T07:19:04;40.20;29.50
38936;DHT22;66589;47.458;9.644;2023-06-14T07:21:30;40.40;29.80
38936;DHT22;66589;47.458;9.644;2023-06-14T07:23:56;39.80;29.90
38936;DHT22;66589;47.458;9.644;2023-06-14T07:26:22;40.00;29.80
38936;DHT22;66589;47.458;9.644;2023-06-14T07:28:48;40.40;29.90
38936;DHT22;66589;47.458;9.644;2023-06-14T07:31:15;40.30;29.50
38936;DHT22;66589;47.458;9.644;2023-06-14T07:33:42;40.80;29.70
38936;DHT22;66589;47.458;9.644;2023-06-14T07:36:08;41.20;28.70
38936;DHT22;66589;47.458;9.644;2023-06-14T07:38:34;41.40;29.10
38936;DHT22;66589;47.458;9.644;2023-06-14T07:41:00;41.80;28.50
38936;DHT22;66589;47.458;9.644;2023-06-14T07:43:26;41.90;28.50
38936;DHT22;66589;47.458;9.644;2023-06-14T07:45:52;41.80;28.20
38936;DHT22;66589;47.458;9.644;2023-06-14T07:48:18;41.40;28.30
38936;DHT22;66589;47.458;9.644;2023-06-14T07:50:44;41.60;28.70
38936;DHT22;66589;47.458;9.644;2023-06-14T07:53:09;41.10;28.90
38936;DHT22;66589;47.458;9.644;2023-06-14T07:55:35;41.70;29.20
38936;DHT22;66589;47.458;9.644;2023-06-14T07:58:03;41.60;28.30
38936;DHT22;66589;47.458;9.644;2023-06-14T08:00:29;41.50;28.20
38936;DHT22;66589;47.458;9.644;2023-06-14T08:02:55;41.60;28.80
38936;DHT22;66589;47.458;9.644;2023-06-14T08:05:27;42.00;28.10
38936;DHT22;66589;47.458;9.644;2023-06-14T08:07:53;42.30;28.50
38936;DHT22;66589;47.458;9.644;2023-06-14T08:10:19;42.50;28.10
38936;DHT22;66589;47.458;9.644;2023-06-14T08:12:45;42.50;28.00
38936;DHT22;66589;47.458;9.644;2023-06-14T08:15:11;42.00;28.30
38936;DHT22;66589;47.458;9.644;2023-06-14T08:17:37;42.30;28.50
38936;DHT22;66589;47.458;9.644;2023-06-14T08:20:03;42.80;28.10
38936;DHT22;66589;47.458;9.644;2023-06-14T08:22:32;42.00;28.60
38936;DHT22;66589;47.458;9.644;2023-06-14T08:25:01;42.50;28.80
38936;DHT22;66589;47.458;9.644;2023-06-14T08:27:27;43.00;28.50
38936;DHT22;66589;47.458;9.644;2023-06-14T08:29:53;42.90;28.10
38936;DHT22;66589;47.458;9.644;2023-06-14T08:32:19;42.80;27.60
38936;DHT22;66589;47.458;9.644;2023-06-14T08:34:45;43.10;28.50
38936;DHT22;66589;47.458;9.644;2023-06-14T08:37:11;43.80;27.40
38936;DHT22;66589;47.458;9.644;2023-06-14T08:39:36;44.00;27.30
38936;DHT22;66589;47.458;9.644;2023-06-14T08:42:03;44.20;27.10
38936;DHT22;66589;47.458;9.644;2023-06-14T08:44:33;44.20;27.90
38936;DHT22;66589;47.458;9.644;2023-06-14T08:47:02;44.30;27.00
38936;DHT22;66589;47.458;9.644;2023-06-14T08:49:29;44.50;27.10
38936;DHT22;66589;47.458;9.644;2023-06-14T08:52:00;44.90;27.10
38936;DHT22;66589;47.458;9.644;2023-06-14T08:54:29;44.80;26.90
38936;DHT22;66589;47.458;9.644;2023-06-14T08:56:59;45.10;26.40
38936;DHT22;66589;47.458;9.644;2023-06-14T08:59:26;45.50;27.00
38936;DHT22;66589;47.458;9.644;2023-06-14T09:01:53;45.40;26.10
38936;DHT22;66589;47.458;9.644;2023-06-14T09:04:22;45.40;26.30
38936;DHT22;66589;47.458;9.644;2023-06-14T09:06:49;44.90;26.70
38936;DHT22;66589;47.458;9.644;2023-06-14T09:09:22;45.60;26.70
38936;DHT22;66589;47.458;9.644;2023-06-14T09:11:51;45.90;26.10
38936;DHT22;66589;47.458;9.644;2023-06-14T09:14:23;46.00;25.80
38936;DHT22;66589;47.458;9.644;2023-06-14T09:16:54;46.00;26.20
38936;DHT22;66589;47.458;9.644;2023-06-14T09:19:25;46.80;25.90
38936;DHT22;66589;47.458;9.644;2023-06-14T09:21:52;46.90;25.80
38936;DHT22;66589;47.458;9.644;2023-06-14T09:24:19;46.80;26.30
38936;DHT22;66589;47.458;9.644;2023-06-14T09:26:47;46.90;25.50
38936;DHT22;66589;47.458;9.644;2023-06-14T09:29:13;47.00;26.20
38936;DHT22;66589;47.458;9.644;2023-06-14T09:31:39;46.70;26.20
38936;DHT22;66589;47.458;9.644;2023-06-14T09:34:05;46.40;25.50
38936;DHT22;66589;47.458;9.644;2023-06-14T09:36:32;46.70;25.80
38936;DHT22;66589;47.458;9.644;2023-06-14T09:38:59;46.80;25.90
38936;DHT22;66589;47.458;9.644;2023-06-14T09:43:59;46.70;26.50
38936;DHT22;66589;47.458;9.644;2023-06-14T09:46:27;46.10;25.10
38936;DHT22;66589;47.458;9.644;2023-06-14T09:48:53;45.90;26.50
38936;DHT22;66589;47.458;9.644;2023-06-14T09:51:19;45.60;25.90
38936;DHT22;66589;47.458;9.644;2023-06-14T09:53:49;45.10;25.90
38936;DHT22;66589;47.458;9.644;2023-06-14T09:56:28;44.90;26.00
38936;DHT22;66589;47.458;9.644;2023-06-14T09:58:58;44.50;26.10
38936;DHT22;66589;47.458;9.644;2023-06-14T10:01:25;43.60;26.80
38936;DHT22;66589;47.458;9.644;2023-06-14T10:03:55;42.50;27.20
38936;DHT22;66589;47.458;9.644;2023-06-14T10:06:25;40.90;27.80
38936;DHT22;66589;47.458;9.644;2023-06-14T10:08:57;39.10;28.90
38936;DHT22;66589;47.458;9.644;2023-06-14T10:11:28;37.90;30.80
38936;DHT22;66589;47.458;9.644;2023-06-14T10:13:58;36.80;31.30
38936;DHT22;66589;47.458;9.644;2023-06-14T10:16:32;35.20;32.30
38936;DHT22;66589;47.458;9.644;2023-06-14T10:19:25;34.50;31.00
38936;DHT22;66589;47.458;9.644;2023-06-14T10:22:04;33.90;32.50
38936;DHT22;66589;47.458;9.644;2023-06-14T10:24:40;33.30;34.40
38936;DHT22;66589;47.458;9.644;2023-06-14T10:27:07;32.60;34.20
38936;DHT22;66589;47.458;9.644;2023-06-14T10:32:21;31.70;35.60
38936;DHT22;66589;47.458;9.644;2023-06-14T10:35:15;31.40;34.40
38936;DHT22;66589;47.458;9.644;2023-06-14T10:37:39;31.10;35.60
38936;DHT22;66589;47.458;9.644;2023-06-14T10:40:06;30.80;34.80
38936;DHT22;66589;47.458;9.644;2023-06-14T10:42:34;30.70;36.30
38936;DHT22;66589;47.458;9.644;2023-06-14T10:45:00;30.60;35.10
38936;DHT22;66589;47.458;9.644;2023-06-14T10:47:31;30.40;37.00
38936;DHT22;66589;47.458;9.644;2023-06-14T10:50:03;30.10;37.00
38936;DHT22;66589;47.458;9.644;2023-06-14T10:52:42;30.10;39.70
38936;DHT22;66589;47.458;9.644;2023-06-14T10:57:50;30.10;36.50
38936;DHT22;66589;47.458;9.644;2023-06-14T11:00:18;30.00;37.50
38936;DHT22;66589;47.458;9.644;2023-06-14T11:05:52;29.60;39.50
38936;DHT22;66589;47.458;9.644;2023-06-14T11:10:59;29.70;38.20
38936;DHT22;66589;47.458;9.644;2023-06-14T11:13:26;29.80;37.60
38936;DHT22;66589;47.458;9.644;2023-06-14T11:15:52;29.70;40.10
38936;DHT22;66589;47.458;9.644;2023-06-14T11:18:23;29.60;36.80
38936;DHT22;66589;47.458;9.644;2023-06-14T11:20:53;29.50;37.40
38936;DHT22;66589;47.458;9.644;2023-06-14T11:23:20;29.30;38.00
38936;DHT22;66589;47.458;9.644;2023-06-14T11:25:50;29.20;39.20
38936;DHT22;66589;47.458;9.644;2023-06-14T11:28:17;29.60;37.60
38936;DHT22;66589;47.458;9.644;2023-06-14T11:30:45;29.80;38.80
38936;DHT22;66589;47.458;9.644;2023-06-14T11:33:11;29.70;35.10
38936;DHT22;66589;47.458;9.644;2023-06-14T11:35:42;29.50;39.00
38936;DHT22;66589;47.458;9.644;2023-06-14T11:38:10;29.50;38.20
38936;DHT22;66589;47.458;9.644;2023-06-14T11:40:38;29.50;37.70
38936;DHT22;66589;47.458;9.644;2023-06-14T11:43:03;29.60;37.60
38936;DHT22;66589;47.458;9.644;2023-06-14T11:45:30;29.70;38.40
38936;DHT22;66589;47.458;9.644;2023-06-14T11:47:57;29.60;36.70
38936;DHT22;66589;47.458;9.644;2023-06-14T11:50:23;29.70;37.20
38936;DHT22;66589;47.458;9.644;2023-06-14T11:52:57;29.70;35.70
38936;DHT22;66589;47.458;9.644;2023-06-14T11:55:23;29.70;37.40
38936;DHT22;66589;47.458;9.644;2023-06-14T11:57:49;29.60;36.90
38936;DHT22;66589;47.458;9.644;2023-06-14T12:00:16;29.50;36.40
38936;DHT22;66589;47.458;9.644;2023-06-14T12:02:43;29.30;35.20
38936;DHT22;66589;47.458;9.644;2023-06-14T12:05:20;29.20;35.50
38936;DHT22;66589;47.458;9.644;2023-06-14T12:07:46;29.20;36.80
38936;DHT22;66589;47.458;9.644;2023-06-14T12:10:14;29.30;37.50
38936;DHT22;66589;47.458;9.644;2023-06-14T12:12:40;29.20;35.50
38936;DHT22;66589;47.458;9.644;2023-06-14T12:15:08;29.10;36.70
38936;DHT22;66589;47.458;9.644;2023-06-14T12:17:36;29.00;36.50
38936;DHT22;66589;47.458;9.644;2023-06-14T12:22:36;29.30;36.20
38936;DHT22;66589;47.458;9.644;2023-06-14T12:25:03;29.40;37.80
38936;DHT22;66589;47.458;9.644;2023-06-14T12:27:29;29.40;34.80
38936;DHT22;66589;47.458;9.644;2023-06-14T12:30:04;29.20;37.20
38936;DHT22;66589;47.458;9.644;2023-06-14T12:32:30;29.20;36.70
38936;DHT22;66589;47.458;9.644;2023-06-14T12:34:56;29.20;36.20
38936;DHT22;66589;47.458;9.644;2023-06-14T12:37:22;29.10;36.90
38936;DHT22;66589;47.458;9.644;2023-06-14T12:39:48;29.20;36.70
38936;DHT22;66589;47.458;9.644;2023-06-14T12:42:13;29.30;36.60
38936;DHT22;66589;47.458;9.644;2023-06-14T12:44:40;29.30;36.10
38936;DHT22;66589;47.458;9.644;2023-06-14T12:47:07;29.30;36.30
38936;DHT22;66589;47.458;9.644;2023-06-14T12:49:33;29.20;35.50
38936;DHT22;66589;47.458;9.644;2023-06-14T12:51:59;29.30;36.50
38936;DHT22;66589;47.458;9.644;2023-06-14T12:54:24;29.20;35.10
38936;DHT22;66589;47.458;9.644;2023-06-14T12:56:53;29.20;34.50
38936;DHT22;66589;47.458;9.644;2023-06-14T12:59:20;29.10;36.40
38936;DHT22;66589;47.458;9.644;2023-06-14T13:01:46;29.20;37.00
38936;DHT22;66589;47.458;9.644;2023-06-14T13:04:15;29.10;33.20
38936;DHT22;66589;47.458;9.644;2023-06-14T13:06:40;28.90;36.80
38936;DHT22;66589;47.458;9.644;2023-06-14T13:09:06;28.90;35.70
38936;DHT22;66589;47.458;9.644;2023-06-14T13:11:33;28.80;37.10
38936;DHT22;66589;47.458;9.644;2023-06-14T13:13:59;29.00;36.50
38936;DHT22;66589;47.458;9.644;2023-06-14T13:16:24;28.90;34.90
38936;DHT22;66589;47.458;9.644;2023-06-14T13:18:50;28.90;36.10
38936;DHT22;66589;47.458;9.644;2023-06-14T13:21:16;29.00;37.10
38936;DHT22;66589;47.458;9.644;2023-06-14T13:23:42;29.00;36.10
38936;DHT22;66589;47.458;9.644;2023-06-14T13:26:07;28.90;36.00
38936;DHT22;66589;47.458;9.644;2023-06-14T13:28:34;29.00;36.60
38936;DHT22;66589;47.458;9.644;2023-06-14T13:31:00;29.10;35.10
38936;DHT22;66589;47.458;9.644;2023-06-14T13:33:27;29.10;36.00
38936;DHT22;66589;47.458;9.644;2023-06-14T13:35:55;29.10;35.40
38936;DHT22;66589;47.458;9.644;2023-06-14T13:38:23;29.10;36.50
38936;DHT22;66589;47.458;9.644;2023-06-14T13:40:48;29.10;34.50
38936;DHT22;66589;47.458;9.644;2023-06-14T13:43:14;29.10;35.30
38936;DHT22;66589;47.458;9.644;2023-06-14T13:45:40;29.00;34.60
38936;DHT22;66589;47.458;9.644;2023-06-14T13:48:05;28.90;35.50
38936;DHT22;66589;47.458;9.644;2023-06-14T13:50:31;29.00;36.10
38936;DHT22;66589;47.458;9.644;2023-06-14T13:52:57;29.00;36.20
38936;DHT22;66589;47.458;9.644;2023-06-14T13:55:22;28.90;35.30
38936;DHT22;66589;47.458;9.644;2023-06-14T13:57:48;28.70;35.70
38936;DHT22;66589;47.458;9.644;2023-06-14T14:00:14;28.70;36.50
38936;DHT22;66589;47.458;9.644;2023-06-14T14:02:40;28.80;36.20
38936;DHT22;66589;47.458;9.644;2023-06-14T14:05:06;28.90;35.90
38936;DHT22;66589;47.458;9.644;2023-06-14T14:07:32;29.00;35.00
38936;DHT22;66589;47.458;9.644;2023-06-14T14:09:57;29.10;34.90
38936;DHT22;66589;47.458;9.644;2023-06-14T14:12:23;29.00;34.60
38936;DHT22;66589;47.458;9.644;2023-06-14T14:14:50;28.90;35.60
38936;DHT22;66589;47.458;9.644;2023-06-14T14:17:16;28.90;35.30
38936;DHT22;66589;47.458;9.644;2023-06-14T14:19:43;28.80;34.30
38936;DHT22;66589;47.458;9.644;2023-06-14T14:22:08;28.70;35.10
38936;DHT22;66589;47.458;9.644;2023-06-14T14:24:34;28.60;34.40
38936;DHT22;66589;47.458;9.644;2023-06-14T14:27:00;28.60;33.50
38936;DHT22;66589;47.458;9.644;2023-06-14T14:29:26;28.60;37.00
38936;DHT22;66589;47.458;9.644;2023-06-14T14:31:54;28.60;35.50
38936;DHT22;66589;47.458;9.644;2023-06-14T14:34:21;28.50;34.20
38936;DHT22;66589;47.458;9.644;2023-06-14T14:36:46;28.50;34.60
38936;DHT22;66589;47.458;9.644;2023-06-14T14:39:12;28.40;34.50
38936;DHT22;66589;47.458;9.644;2023-06-14T14:41:38;28.40;34.80
38936;DHT22;66589;47.458;9.644;2023-06-14T14:44:05;28.50;35.80
38936;DHT22;66589;47.458;9.644;2023-06-14T14:46:31;28.40;33.90
38936;DHT22;66589;47.458;9.644;2023-06-14T14:48:58;28.30;32.90
38936;DHT22;66589;47.458;9.644;2023-06-14T14:51:24;28.30;35.30
38936;DHT22;66589;47.458;9.644;2023-06-14T14:53:50;28.30;34.90
38936;DHT22;66589;47.458;9.644;2023-06-14T14:56:16;28.20;35.40
38936;DHT22;66589;47.458;9.644;2023-06-14T14:58:42;28.30;34.60
38936;DHT22;66589;47.458;9.644;2023-06-14T15:01:08;28.40;35.30
38936;DHT22;66589;47.458;9.644;2023-06-14T15:03:33;28.40;35.20
38936;DHT22;66589;47.458;9.644;2023-06-14T15:05:59;28.30;34.40
38936;DHT22;66589;47.458;9.644;2023-06-14T15:08:25;28.30;34.10
38936;DHT22;66589;47.458;9.644;2023-06-14T15:10:51;28.30;35.70
38936;DHT22;66589;47.458;9.644;2023-06-14T15:13:16;28.30;34.50
38936;DHT22;66589;47.458;9.644;2023-06-14T15:15:42;28.20;34.70
38936;DHT22;66589;47.458;9.644;2023-06-14T15:18:08;28.10;35.40
38936;DHT22;66589;47.458;9.644;2023-06-14T15:20:36;28.10;35.00
38936;DHT22;66589;47.458;9.644;2023-06-14T15:23:01;28.10;34.90
38936;DHT22;66589;47.458;9.644;2023-06-14T15:25:28;28.00;34.40
38936;DHT22;66589;47.458;9.644;2023-06-14T15:27:54;27.90;35.50
38936;DHT22;66589;47.458;9.644;2023-06-14T15:30:21;27.90;35.90
38936;DHT22;66589;47.458;9.644;2023-06-14T15:32:47;28.00;34.10
38936;DHT22;66589;47.458;9.644;2023-06-14T15:35:13;27.90;35.40
38936;DHT22;66589;47.458;9.644;2023-06-14T15:37:39;28.00;34.80
38936;DHT22;66589;47.458;9.644;2023-06-14T15:40:05;27.90;35.90
38936;DHT22;66589;47.458;9.644;2023-06-14T15:42:31;27.90;35.60
38936;DHT22;66589;47.458;9.644;2023-06-14T15:44:57;28.00;36.50
38936;DHT22;66589;47.458;9.644;2023-06-14T15:47:23;28.00;33.10
38936;DHT22;66589;47.458;9.644;2023-06-14T15:49:49;27.90;33.80
38936;DHT22;66589;47.458;9.644;2023-06-14T15:52:15;27.90;35.10
38936;DHT22;66589;47.458;9.644;2023-06-14T15:54:40;27.80;35.30
38936;DHT22;66589;47.458;9.644;2023-06-14T15:57:06;27.90;36.10
38936;DHT22;66589;47.458;9.644;2023-06-14T15:59:33;27.90;35.10
38936;DHT22;66589;47.458;9.644;2023-06-14T16:01:58;27.80;34.30
38936;DHT22;66589;47.458;9.644;2023-06-14T16:04:24;27.80;35.80
38936;DHT22;66589;47.458;9.644;2023-06-14T16:06:50;27.70;33.80
38936;DHT22;66589;47.458;9.644;2023-06-14T16:09:16;27.60;35.30
38936;DHT22;66589;47.458;9.644;2023-06-14T16:11:41;27.70;35.60
38936;DHT22;66589;47.458;9.644;2023-06-14T16:14:07;27.60;35.00
38936;DHT22;66589;47.458;9.644;2023-06-14T16:16:33;27.60;35.70
38936;DHT22;66589;47.458;9.644;2023-06-14T16:18:58;27.50;34.40
38936;DHT22;66589;47.458;9.644;2023-06-14T16:21:24;27.50;35.80
38936;DHT22;66589;47.458;9.644;2023-06-14T16:23:51;27.50;35.80
38936;DHT22;66589;47.458;9.644;2023-06-14T16:26:17;27.50;35.50
38936;DHT22;66589;47.458;9.644;2023-06-14T16:28:43;27.50;36.00
38936;DHT22;66589;47.458;9.644;2023-06-14T16:31:11;27.40;37.30
38936;DHT22;66589;47.458;9.644;2023-06-14T16:33:37;27.40;36.70
38936;DHT22;66589;47.458;9.644;2023-06-14T16:36:02;27.40;35.90
38936;DHT22;66589;47.458;9.644;2023-06-14T16:38:28;27.30;36.20
38936;DHT22;66589;47.458;9.644;2023-06-14T16:40:54;27.30;36.20
38936;DHT22;66589;47.458;9.644;2023-06-14T16:43:19;27.30;37.40
38936;DHT22;66589;47.458;9.644;2023-06-14T16:45:45;27.30;37.20
38936;DHT22;66589;47.458;9.644;2023-06-14T16:48:11;27.20;38.40
38936;DHT22;66589;47.458;9.644;2023-06-14T16:50:36;27.30;38.80
38936;DHT22;66589;47.458;9.644;2023-06-14T16:53:02;27.20;40.10
38936;DHT22;66589;47.458;9.644;2023-06-14T16:55:28;27.10;39.40
38936;DHT22;66589;47.458;9.644;2023-06-14T16:57:53;27.10;39.40
38936;DHT22;66589;47.458;9.644;2023-06-14T17:00:19;27.10;39.60
38936;DHT22;66589;47.458;9.644;2023-06-14T17:02:45;27.10;39.70
38936;DHT22;66589;47.458;9.644;2023-06-14T17:05:11;27.00;39.60
38936;DHT22;66589;47.458;9.644;2023-06-14T17:07:38;27.00;39.30
38936;DHT22;66589;47.458;9.644;2023-06-14T17:10:04;26.90;38.70
38936;DHT22;66589;47.458;9.644;2023-06-14T17:12:30;26.90;39.40
38936;DHT22;66589;47.458;9.644;2023-06-14T17:14:55;26.90;39.60
38936;DHT22;66589;47.458;9.644;2023-06-14T17:17:21;26.90;39.00
38936;DHT22;66589;47.458;9.644;2023-06-14T17:19:47;26.80;39.40
38936;DHT22;66589;47.458;9.644;2023-06-14T17:22:13;26.70;39.60
38936;DHT22;66589;47.458;9.644;2023-06-14T17:24:39;26.70;40.30
38936;DHT22;66589;47.458;9.644;2023-06-14T17:27:05;26.70;38.90
38936;DHT22;66589;47.458;9.644;2023-06-14T17:29:31;26.60;39.40
38936;DHT22;66589;47.458;9.644;2023-06-14T17:31:56;26.60;39.60
38936;DHT22;66589;47.458;9.644;2023-06-14T17:34:22;26.60;38.70
38936;DHT22;66589;47.458;9.644;2023-06-14T17:36:48;26.40;38.40
38936;DHT22;66589;47.458;9.644;2023-06-14T17:39:19;26.40;39.10
38936;DHT22;66589;47.458;9.644;2023-06-14T17:41:44;26.30;38.30
38936;DHT22;66589;47.458;9.644;2023-06-14T17:44:11;26.20;38.80
38936;DHT22;66589;47.458;9.644;2023-06-14T17:46:37;26.20;39.50
38936;DHT22;66589;47.458;9.644;2023-06-14T17:49:03;26.10;39.70
38936;DHT22;66589;47.458;9.644;2023-06-14T17:51:28;26.10;39.50
38936;DHT22;66589;47.458;9.644;2023-06-14T17:53:54;26.00;39.90
38936;DHT22;66589;47.458;9.644;2023-06-14T17:56:20;25.80;40.60
38936;DHT22;66589;47.458;9.644;2023-06-14T17:58:46;25.60;40.60
38936;DHT22;66589;47.458;9.644;2023-06-14T18:01:12;25.60;40.00
38936;DHT22;66589;47.458;9.644;2023-06-14T18:03:40;25.50;39.90
38936;DHT22;66589;47.458;9.644;2023-06-14T18:06:05;25.40;39.60
38936;DHT22;66589;47.458;9.644;2023-06-14T18:08:31;25.30;39.90
38936;DHT22;66589;47.458;9.644;2023-06-14T18:10:57;25.20;40.10
38936;DHT22;66589;47.458;9.644;2023-06-14T18:13:22;25.20;39.30
38936;DHT22;66589;47.458;9.644;2023-06-14T18:15:48;25.10;39.20
38936;DHT22;66589;47.458;9.644;2023-06-14T18:18:14;25.00;39.30
38936;DHT22;66589;47.458;9.644;2023-06-14T18:20:39;24.90;40.40
38936;DHT22;66589;47.458;9.644;2023-06-14T18:23:05;24.80;39.80
38936;DHT22;66589;47.458;9.644;2023-06-14T18:25:31;24.70;40.00
38936;DHT22;66589;47.458;9.644;2023-06-14T18:27:56;24.60;40.10
38936;DHT22;66589;47.458;9.644;2023-06-14T18:30:22;24.60;40.90
38936;DHT22;66589;47.458;9.644;2023-06-14T18:32:48;24.40;40.20
38936;DHT22;66589;47.458;9.644;2023-06-14T18:35:15;24.40;41.40
38936;DHT22;66589;47.458;9.644;2023-06-14T18:37:42;24.30;40.80
38936;DHT22;66589;47.458;9.644;2023-06-14T18:40:08;24.20;41.20
38936;DHT22;66589;47.458;9.644;2023-06-14T18:42:34;24.10;41.40
38936;DHT22;66589;47.458;9.644;2023-06-14T18:45:00;24.00;41.70
38936;DHT22;66589;47.458;9.644;2023-06-14T18:47:25;24.00;41.60
38936;DHT22;66589;47.458;9.644;2023-06-14T18:49:51;23.90;41.90
38936;DHT22;66589;47.458;9.644;2023-06-14T18:52:17;23.80;42.00
38936;DHT22;66589;47.458;9.644;2023-06-14T18:54:43;23.70;42.10
38936;DHT22;66589;47.458;9.644;2023-06-14T18:57:09;23.60;43.00
38936;DHT22;66589;47.458;9.644;2023-06-14T18:59:34;23.50;43.00